sensor_id;sensor_type;location;lat;lon;timestamp;P1;durP1;ratioP1;P2;durP2;ratioP2
68108;SDS011;54893;49.864;19.084;2023-03-14T00:04:00;4.93;;;1.90;;
68108;SDS011;54893;49.864;19.084;2023-03-14T00:09:04;5.37;;;1.70;;
68108;SDS011;54893;49.864;19.084;2023-03-14T00:14:04;5.13;;;1.80;;
68108;SDS011;54893;49.864;19.084;2023-03-14T00:19:04;6.20;;;1.47;;
68108;SDS011;54893;49.864;19.084;2023-03-14T00:24:05;4.93;;;1.93;;
68108;SDS011;54893;49.864;19.084;2023-03-14T00:29:06;5.97;;;1.85;;
68108;SDS011;54893;49.864;19.084;2023-03-14T00:34:06;7.53;;;2.00;;
68108;SDS011;54893;49.864;19.084;2023-03-14T00:39:06;4.38;;;1.70;;
68108;SDS011;54893;49.864;19.084;2023-03-14T00:44:07;8.57;;;1.67;;
68108;SDS011;54893;49.864;19.084;2023-03-14T00:49:07;5.43;;;1.88;;
68108;SDS011;54893;49.864;19.084;2023-03-14T00:54:07;4.63;;;2.10;;
68108;SDS011;54893;49.864;19.084;2023-03-14T00:59:08;4.80;;;1.70;;
68108;SDS011;54893;49.864;19.084;2023-03-14T01:04:08;3.27;;;1.67;;
68108;SDS011;54893;49.864;19.084;2023-03-14T01:09:08;4.83;;;2.10;;
68108;SDS011;54893;49.864;19.084;2023-03-14T01:14:09;5.80;;;2.17;;
68108;SDS011;54893;49.864;19.084;2023-03-14T01:19:10;6.28;;;1.77;;
68108;SDS011;54893;49.864;19.084;2023-03-14T01:24:10;5.03;;;2.13;;
68108;SDS011;54893;49.864;19.084;2023-03-14T01:29:11;5.10;;;2.10;;
68108;SDS011;54893;49.864;19.084;2023-03-14T01:34:12;5.32;;;2.25;;
68108;SDS011;54893;49.864;19.084;2023-03-14T01:39:12;5.03;;;2.07;;
68108;SDS011;54893;49.864;19.084;2023-03-14T01:44:13;5.00;;;1.90;;
68108;SDS011;54893;49.864;19.084;2023-03-14T01:49:29;6.33;;;1.83;;
68108;SDS011;54893;49.864;19.084;2023-03-14T01:54:39;5.93;;;2.03;;
68108;SDS011;54893;49.864;19.084;2023-03-14T01:59:43;5.43;;;1.98;;
68108;SDS011;54893;49.864;19.084;2023-03-14T02:04:48;4.70;;;1.67;;
68108;SDS011;54893;49.864;19.084;2023-03-14T02:09:49;5.60;;;1.70;;
68108;SDS011;54893;49.864;19.084;2023-03-14T02:14:51;5.05;;;2.13;;
68108;SDS011;54893;49.864;19.084;2023-03-14T02:30:11;5.90;;;2.00;;
68108;SDS011;54893;49.864;19.084;2023-03-14T02:35:15;5.13;;;1.80;;
68108;SDS011;54893;49.864;19.084;2023-03-14T02:40:21;5.07;;;2.20;;
68108;SDS011;54893;49.864;19.084;2023-03-14T02:45:28;4.63;;;1.65;;
68108;SDS011;54893;49.864;19.084;2023-03-14T02:50:34;5.60;;;2.10;;
68108;SDS011;54893;49.864;19.084;2023-03-14T02:55:34;6.10;;;1.90;;
68108;SDS011;54893;49.864;19.084;2023-03-14T03:00:35;5.93;;;1.80;;
68108;SDS011;54893;49.864;19.084;2023-03-14T03:05:35;4.87;;;1.90;;
68108;SDS011;54893;49.864;19.084;2023-03-14T03:10:35;8.10;;;1.60;;
68108;SDS011;54893;49.864;19.084;2023-03-14T03:15:36;5.93;;;1.80;;
68108;SDS011;54893;49.864;19.084;2023-03-14T03:20:36;5.60;;;1.80;;
68108;SDS011;54893;49.864;19.084;2023-03-14T03:25:37;4.77;;;1.83;;
68108;SDS011;54893;49.864;19.084;2023-03-14T03:30:38;4.70;;;1.67;;
68108;SDS011;54893;49.864;19.084;2023-03-14T03:35:42;6.15;;;2.15;;
68108;SDS011;54893;49.864;19.084;2023-03-14T03:40:44;5.53;;;2.00;;
68108;SDS011;54893;49.864;19.084;2023-03-14T03:45:44;6.07;;;1.90;;
68108;SDS011;54893;49.864;19.084;2023-03-14T03:50:45;5.23;;;2.10;;
68108;SDS011;54893;49.864;19.084;2023-03-14T03:55:46;5.03;;;1.70;;
68108;SDS011;54893;49.864;19.084;2023-03-14T04:00:48;6.10;;;2.20;;
68108;SDS011;54893;49.864;19.084;2023-03-14T04:06:01;5.77;;;1.90;;
68108;SDS011;54893;49.864;19.084;2023-03-14T04:11:03;5.68;;;2.00;;
68108;SDS011;54893;49.864;19.084;2023-03-14T04:16:08;5.67;;;2.20;;
68108;SDS011;54893;49.864;19.084;2023-03-14T04:21:14;5.63;;;2.20;;
68108;SDS011;54893;49.864;19.084;2023-03-14T04:26:15;6.68;;;1.90;;
68108;SDS011;54893;49.864;19.084;2023-03-14T04:31:17;5.13;;;2.10;;
68108;SDS011;54893;49.864;19.084;2023-03-14T04:36:19;4.88;;;1.85;;
68108;SDS011;54893;49.864;19.084;2023-03-14T04:41:20;5.00;;;2.00;;
68108;SDS011;54893;49.864;19.084;2023-03-14T04:46:20;5.17;;;2.27;;
68108;SDS011;54893;49.864;19.084;2023-03-14T04:51:20;5.27;;;2.27;;
68108;SDS011;54893;49.864;19.084;2023-03-14T04:56:23;7.07;;;2.80;;
68108;SDS011;54893;49.864;19.084;2023-03-14T05:01:23;5.70;;;2.20;;
68108;SDS011;54893;49.864;19.084;2023-03-14T05:06:24;6.20;;;2.27;;
68108;SDS011;54893;49.864;19.084;2023-03-14T05:11:24;6.50;;;2.17;;
68108;SDS011;54893;49.864;19.084;2023-03-14T05:16:24;8.20;;;2.70;;
68108;SDS011;54893;49.864;19.084;2023-03-14T05:21:25;5.57;;;2.20;;
68108;SDS011;54893;49.864;19.084;2023-03-14T05:26:26;9.27;;;2.47;;
68108;SDS011;54893;49.864;19.084;2023-03-14T05:31:27;4.70;;;2.15;;
68108;SDS011;54893;49.864;19.084;2023-03-14T05:36:27;6.57;;;2.40;;
68108;SDS011;54893;49.864;19.084;2023-03-14T05:41:27;8.33;;;2.60;;
68108;SDS011;54893;49.864;19.084;2023-03-14T05:46:29;6.90;;;2.38;;
68108;SDS011;54893;49.864;19.084;2023-03-14T05:51:30;7.33;;;2.70;;
68108;SDS011;54893;49.864;19.084;2023-03-14T05:56:31;6.63;;;2.80;;
68108;SDS011;54893;49.864;19.084;2023-03-14T06:01:32;7.60;;;3.10;;
68108;SDS011;54893;49.864;19.084;2023-03-14T06:06:32;8.60;;;3.73;;
68108;SDS011;54893;49.864;19.084;2023-03-14T06:11:33;10.10;;;4.00;;
68108;SDS011;54893;49.864;19.084;2023-03-14T06:16:33;9.33;;;4.10;;
68108;SDS011;54893;49.864;19.084;2023-03-14T06:21:33;8.13;;;3.00;;
68108;SDS011;54893;49.864;19.084;2023-03-14T06:26:34;8.67;;;3.00;;
68108;SDS011;54893;49.864;19.084;2023-03-14T06:31:34;13.10;;;3.50;;
68108;SDS011;54893;49.864;19.084;2023-03-14T06:36:35;9.13;;;3.47;;
68108;SDS011;54893;49.864;19.084;2023-03-14T06:41:35;8.67;;;3.77;;
68108;SDS011;54893;49.864;19.084;2023-03-14T06:46:35;10.03;;;3.60;;
68108;SDS011;54893;49.864;19.084;2023-03-14T06:51:36;8.43;;;3.53;;
68108;SDS011;54893;49.864;19.084;2023-03-14T06:56:36;6.13;;;3.10;;
68108;SDS011;54893;49.864;19.084;2023-03-14T07:01:36;7.65;;;3.50;;
68108;SDS011;54893;49.864;19.084;2023-03-14T07:06:37;8.97;;;3.07;;
68108;SDS011;54893;49.864;19.084;2023-03-14T07:11:39;6.83;;;2.87;;
68108;SDS011;54893;49.864;19.084;2023-03-14T07:16:39;8.53;;;2.90;;
68108;SDS011;54893;49.864;19.084;2023-03-14T07:21:40;7.47;;;3.37;;
68108;SDS011;54893;49.864;19.084;2023-03-14T07:26:40;6.47;;;2.70;;
68108;SDS011;54893;49.864;19.084;2023-03-14T07:31:41;7.10;;;3.23;;
68108;SDS011;54893;49.864;19.084;2023-03-14T07:36:41;6.20;;;2.90;;
68108;SDS011;54893;49.864;19.084;2023-03-14T07:41:41;8.00;;;3.17;;
68108;SDS011;54893;49.864;19.084;2023-03-14T07:46:42;7.97;;;3.07;;
68108;SDS011;54893;49.864;19.084;2023-03-14T07:51:42;6.63;;;2.80;;
68108;SDS011;54893;49.864;19.084;2023-03-14T07:56:44;7.30;;;3.28;;
68108;SDS011;54893;49.864;19.084;2023-03-14T08:01:44;6.17;;;2.60;;
68108;SDS011;54893;49.864;19.084;2023-03-14T08:06:44;7.07;;;2.97;;
68108;SDS011;54893;49.864;19.084;2023-03-14T08:11:45;6.40;;;2.80;;
68108;SDS011;54893;49.864;19.084;2023-03-14T08:16:45;6.00;;;2.87;;
68108;SDS011;54893;49.864;19.084;2023-03-14T08:21:45;10.97;;;3.63;;
68108;SDS011;54893;49.864;19.084;2023-03-14T08:26:46;6.17;;;2.87;;
68108;SDS011;54893;49.864;19.084;2023-03-14T08:31:46;8.37;;;3.37;;
68108;SDS011;54893;49.864;19.084;2023-03-14T08:36:48;6.23;;;2.73;;
68108;SDS011;54893;49.864;19.084;2023-03-14T08:41:49;7.20;;;3.30;;
68108;SDS011;54893;49.864;19.084;2023-03-14T08:46:50;7.28;;;3.40;;
68108;SDS011;54893;49.864;19.084;2023-03-14T08:51:50;9.48;;;3.47;;
68108;SDS011;54893;49.864;19.084;2023-03-14T08:56:50;9.03;;;3.07;;
68108;SDS011;54893;49.864;19.084;2023-03-14T09:01:51;7.70;;;3.93;;
68108;SDS011;54893;49.864;19.084;2023-03-14T09:06:51;10.77;;;4.30;;
68108;SDS011;54893;49.864;19.084;2023-03-14T09:11:51;9.37;;;4.07;;
68108;SDS011;54893;49.864;19.084;2023-03-14T09:16:52;8.27;;;3.50;;
68108;SDS011;54893;49.864;19.084;2023-03-14T09:21:53;8.03;;;3.70;;
68108;SDS011;54893;49.864;19.084;2023-03-14T09:26:55;7.47;;;3.88;;
68108;SDS011;54893;49.864;19.084;2023-03-14T09:31:57;9.73;;;3.97;;
68108;SDS011;54893;49.864;19.084;2023-03-14T09:36:58;7.22;;;3.47;;
68108;SDS011;54893;49.864;19.084;2023-03-14T09:42:01;6.97;;;3.30;;
68108;SDS011;54893;49.864;19.084;2023-03-14T09:47:05;5.57;;;3.17;;
68108;SDS011;54893;49.864;19.084;2023-03-14T09:57:30;7.03;;;3.30;;
68108;SDS011;54893;49.864;19.084;2023-03-14T10:02:35;7.55;;;3.03;;
68108;SDS011;54893;49.864;19.084;2023-03-14T10:07:35;6.72;;;2.45;;
68108;SDS011;54893;49.864;19.084;2023-03-14T10:12:36;7.40;;;3.10;;
68108;SDS011;54893;49.864;19.084;2023-03-14T10:17:42;6.47;;;3.00;;
68108;SDS011;54893;49.864;19.084;2023-03-14T10:22:49;6.30;;;2.90;;
68108;SDS011;54893;49.864;19.084;2023-03-14T10:27:51;6.33;;;2.90;;
68108;SDS011;54893;49.864;19.084;2023-03-14T10:32:51;7.13;;;3.60;;
68108;SDS011;54893;49.864;19.084;2023-03-14T10:38:00;5.13;;;2.60;;
68108;SDS011;54893;49.864;19.084;2023-03-14T10:43:03;5.65;;;2.83;;
68108;SDS011;54893;49.864;19.084;2023-03-14T10:48:06;8.23;;;3.00;;
68108;SDS011;54893;49.864;19.084;2023-03-14T10:53:22;8.03;;;3.33;;
68108;SDS011;54893;49.864;19.084;2023-03-14T10:58:25;7.50;;;3.25;;
68108;SDS011;54893;49.864;19.084;2023-03-14T11:03:28;8.73;;;3.60;;
68108;SDS011;54893;49.864;19.084;2023-03-14T11:08:41;6.43;;;3.17;;
68108;SDS011;54893;49.864;19.084;2023-03-14T11:14:00;9.63;;;3.90;;
68108;SDS011;54893;49.864;19.084;2023-03-14T11:29:41;9.23;;;3.73;;
68108;SDS011;54893;49.864;19.084;2023-03-14T11:34:55;7.93;;;3.28;;
68108;SDS011;54893;49.864;19.084;2023-03-14T11:40:02;8.55;;;4.10;;
68108;SDS011;54893;49.864;19.084;2023-03-14T11:45:14;9.03;;;3.73;;
68108;SDS011;54893;49.864;19.084;2023-03-14T11:55:27;10.40;;;4.10;;
68108;SDS011;54893;49.864;19.084;2023-03-14T12:00:31;8.38;;;4.15;;
68108;SDS011;54893;49.864;19.084;2023-03-14T12:10:49;9.10;;;4.18;;
68108;SDS011;54893;49.864;19.084;2023-03-14T12:16:20;8.63;;;3.90;;
68108;SDS011;54893;49.864;19.084;2023-03-14T12:21:22;8.75;;;3.92;;
68108;SDS011;54893;49.864;19.084;2023-03-14T12:26:46;10.77;;;4.20;;
68108;SDS011;54893;49.864;19.084;2023-03-14T12:52:33;7.93;;;3.90;;
68108;SDS011;54893;49.864;19.084;2023-03-14T12:57:56;7.43;;;3.90;;
68108;SDS011;54893;49.864;19.084;2023-03-14T13:03:23;7.90;;;3.92;;
68108;SDS011;54893;49.864;19.084;2023-03-14T13:08:34;9.10;;;4.10;;
68108;SDS011;54893;49.864;19.084;2023-03-14T13:13:47;8.77;;;3.23;;
68108;SDS011;54893;49.864;19.084;2023-03-14T13:18:59;8.90;;;3.90;;
68108;SDS011;54893;49.864;19.084;2023-03-14T13:24:07;8.23;;;3.83;;
68108;SDS011;54893;49.864;19.084;2023-03-14T13:29:25;8.27;;;3.40;;
68108;SDS011;54893;49.864;19.084;2023-03-14T13:34:33;8.65;;;4.00;;
68108;SDS011;54893;49.864;19.084;2023-03-14T13:39:34;7.57;;;4.23;;
68108;SDS011;54893;49.864;19.084;2023-03-14T13:44:39;10.07;;;4.30;;
68108;SDS011;54893;49.864;19.084;2023-03-14T13:49:40;11.23;;;6.03;;
68108;SDS011;54893;49.864;19.084;2023-03-14T13:54:40;7.93;;;4.20;;
68108;SDS011;54893;49.864;19.084;2023-03-14T13:59:40;8.43;;;4.20;;
68108;SDS011;54893;49.864;19.084;2023-03-14T14:04:41;14.77;;;6.50;;
68108;SDS011;54893;49.864;19.084;2023-03-14T14:09:42;16.97;;;11.00;;
68108;SDS011;54893;49.864;19.084;2023-03-14T14:14:46;15.10;;;8.93;;
68108;SDS011;54893;49.864;19.084;2023-03-14T14:19:50;25.27;;;10.53;;
68108;SDS011;54893;49.864;19.084;2023-03-14T14:24:51;11.88;;;5.05;;
68108;SDS011;54893;49.864;19.084;2023-03-14T14:29:59;14.37;;;6.40;;
68108;SDS011;54893;49.864;19.084;2023-03-14T14:35:24;5.30;;;2.00;;
68108;SDS011;54893;49.864;19.084;2023-03-14T14:40:34;6.90;;;2.20;;
68108;SDS011;54893;49.864;19.084;2023-03-14T14:45:52;7.72;;;2.30;;
68108;SDS011;54893;49.864;19.084;2023-03-14T14:56:18;7.05;;;2.80;;
68108;SDS011;54893;49.864;19.084;2023-03-14T15:01:25;6.03;;;2.97;;
68108;SDS011;54893;49.864;19.084;2023-03-14T15:06:32;8.17;;;3.37;;
68108;SDS011;54893;49.864;19.084;2023-03-14T15:11:32;9.93;;;3.93;;
68108;SDS011;54893;49.864;19.084;2023-03-14T15:16:33;11.63;;;5.03;;
68108;SDS011;54893;49.864;19.084;2023-03-14T15:21:33;13.17;;;5.40;;
68108;SDS011;54893;49.864;19.084;2023-03-14T15:26:34;11.23;;;6.60;;
68108;SDS011;54893;49.864;19.084;2023-03-14T15:31:34;14.97;;;7.03;;
68108;SDS011;54893;49.864;19.084;2023-03-14T15:36:36;16.05;;;7.50;;
68108;SDS011;54893;49.864;19.084;2023-03-14T15:41:37;17.38;;;7.95;;
68108;SDS011;54893;49.864;19.084;2023-03-14T15:46:37;17.13;;;7.87;;
68108;SDS011;54893;49.864;19.084;2023-03-14T15:51:38;17.47;;;8.17;;
68108;SDS011;54893;49.864;19.084;2023-03-14T15:56:38;17.87;;;7.13;;
68108;SDS011;54893;49.864;19.084;2023-03-14T16:01:39;13.98;;;6.50;;
68108;SDS011;54893;49.864;19.084;2023-03-14T16:06:39;17.50;;;8.40;;
68108;SDS011;54893;49.864;19.084;2023-03-14T16:11:39;35.42;;;18.98;;
68108;SDS011;54893;49.864;19.084;2023-03-14T16:16:40;31.70;;;15.13;;
68108;SDS011;54893;49.864;19.084;2023-03-14T16:21:40;65.03;;;33.87;;
68108;SDS011;54893;49.864;19.084;2023-03-14T16:26:42;70.10;;;35.57;;
68108;SDS011;54893;49.864;19.084;2023-03-14T16:31:44;41.67;;;20.38;;
68108;SDS011;54893;49.864;19.084;2023-03-14T16:36:44;24.00;;;11.77;;
68108;SDS011;54893;49.864;19.084;2023-03-14T16:41:46;18.13;;;8.98;;
68108;SDS011;54893;49.864;19.084;2023-03-14T16:46:47;19.20;;;7.80;;
68108;SDS011;54893;49.864;19.084;2023-03-14T16:51:47;8.40;;;3.60;;
68108;SDS011;54893;49.864;19.084;2023-03-14T16:56:47;7.37;;;3.00;;
68108;SDS011;54893;49.864;19.084;2023-03-14T17:01:48;10.03;;;4.30;;
68108;SDS011;54893;49.864;19.084;2023-03-14T17:06:49;11.17;;;4.70;;
68108;SDS011;54893;49.864;19.084;2023-03-14T17:11:50;12.60;;;5.50;;
68108;SDS011;54893;49.864;19.084;2023-03-14T17:16:54;12.40;;;4.93;;
68108;SDS011;54893;49.864;19.084;2023-03-14T17:21:55;13.80;;;5.73;;
68108;SDS011;54893;49.864;19.084;2023-03-14T17:26:55;15.37;;;6.20;;
68108;SDS011;54893;49.864;19.084;2023-03-14T17:31:55;12.10;;;5.80;;
68108;SDS011;54893;49.864;19.084;2023-03-14T17:36:56;15.90;;;6.47;;
68108;SDS011;54893;49.864;19.084;2023-03-14T17:41:56;16.07;;;6.93;;
68108;SDS011;54893;49.864;19.084;2023-03-14T17:46:57;14.27;;;6.13;;
68108;SDS011;54893;49.864;19.084;2023-03-14T17:51:58;14.50;;;5.72;;
68108;SDS011;54893;49.864;19.084;2023-03-14T17:56:58;14.40;;;6.57;;
68108;SDS011;54893;49.864;19.084;2023-03-14T18:01:59;13.03;;;5.50;;
68108;SDS011;54893;49.864;19.084;2023-03-14T18:06:59;10.80;;;4.70;;
68108;SDS011;54893;49.864;19.084;2023-03-14T18:12:01;11.63;;;5.03;;
68108;SDS011;54893;49.864;19.084;2023-03-14T18:17:02;13.68;;;5.72;;
68108;SDS011;54893;49.864;19.084;2023-03-14T18:22:02;13.27;;;6.07;;
68108;SDS011;54893;49.864;19.084;2023-03-14T18:27:03;12.73;;;4.70;;
68108;SDS011;54893;49.864;19.084;2023-03-14T18:32:04;9.25;;;4.00;;
68108;SDS011;54893;49.864;19.084;2023-03-14T18:37:04;12.80;;;5.68;;
68108;SDS011;54893;49.864;19.084;2023-03-14T18:42:05;9.33;;;4.00;;
68108;SDS011;54893;49.864;19.084;2023-03-14T18:47:05;8.63;;;3.73;;
68108;SDS011;54893;49.864;19.084;2023-03-14T18:52:06;9.40;;;3.93;;
68108;SDS011;54893;49.864;19.084;2023-03-14T18:57:06;9.60;;;3.57;;
68108;SDS011;54893;49.864;19.084;2023-03-14T19:02:07;8.27;;;3.17;;
68108;SDS011;54893;49.864;19.084;2023-03-14T19:07:08;11.10;;;4.35;;
68108;SDS011;54893;49.864;19.084;2023-03-14T19:12:09;12.97;;;4.83;;
68108;SDS011;54893;49.864;19.084;2023-03-14T19:17:09;15.13;;;4.87;;
68108;SDS011;54893;49.864;19.084;2023-03-14T19:22:10;15.73;;;5.17;;
68108;SDS011;54893;49.864;19.084;2023-03-14T19:27:10;15.23;;;5.70;;
68108;SDS011;54893;49.864;19.084;2023-03-14T19:32:11;14.30;;;5.43;;
68108;SDS011;54893;49.864;19.084;2023-03-14T19:37:12;12.13;;;4.85;;
68108;SDS011;54893;49.864;19.084;2023-03-14T19:42:14;13.25;;;5.03;;
68108;SDS011;54893;49.864;19.084;2023-03-14T19:47:14;11.67;;;4.40;;
68108;SDS011;54893;49.864;19.084;2023-03-14T19:52:15;9.93;;;3.88;;
68108;SDS011;54893;49.864;19.084;2023-03-14T19:57:18;8.30;;;3.67;;
68108;SDS011;54893;49.864;19.084;2023-03-14T20:02:20;11.17;;;4.50;;
68108;SDS011;54893;49.864;19.084;2023-03-14T20:07:20;10.07;;;4.03;;
68108;SDS011;54893;49.864;19.084;2023-03-14T20:12:22;10.20;;;4.10;;
68108;SDS011;54893;49.864;19.084;2023-03-14T20:17:23;10.03;;;4.93;;
68108;SDS011;54893;49.864;19.084;2023-03-14T20:22:23;8.53;;;3.97;;
68108;SDS011;54893;49.864;19.084;2023-03-14T20:27:23;6.57;;;3.23;;
68108;SDS011;54893;49.864;19.084;2023-03-14T20:32:24;7.03;;;2.67;;
68108;SDS011;54893;49.864;19.084;2023-03-14T20:37:24;6.27;;;2.60;;
68108;SDS011;54893;49.864;19.084;2023-03-14T20:42:25;6.17;;;2.90;;
68108;SDS011;54893;49.864;19.084;2023-03-14T20:47:26;6.13;;;1.90;;
68108;SDS011;54893;49.864;19.084;2023-03-14T20:52:26;6.00;;;2.13;;
68108;SDS011;54893;49.864;19.084;2023-03-14T20:57:27;7.10;;;2.50;;
68108;SDS011;54893;49.864;19.084;2023-03-14T21:02:27;5.33;;;2.00;;
68108;SDS011;54893;49.864;19.084;2023-03-14T21:07:28;4.63;;;1.77;;
68108;SDS011;54893;49.864;19.084;2023-03-14T21:12:30;4.55;;;1.80;;
68108;SDS011;54893;49.864;19.084;2023-03-14T21:17:30;6.22;;;2.45;;
68108;SDS011;54893;49.864;19.084;2023-03-14T21:22:31;4.43;;;2.00;;
68108;SDS011;54893;49.864;19.084;2023-03-14T21:27:31;4.07;;;1.90;;
68108;SDS011;54893;49.864;19.084;2023-03-14T21:32:32;5.88;;;2.03;;
68108;SDS011;54893;49.864;19.084;2023-03-14T21:37:32;4.80;;;1.83;;
68108;SDS011;54893;49.864;19.084;2023-03-14T21:42:33;4.37;;;1.70;;
68108;SDS011;54893;49.864;19.084;2023-03-14T21:47:34;6.07;;;2.05;;
68108;SDS011;54893;49.864;19.084;2023-03-14T21:52:34;4.93;;;2.28;;
68108;SDS011;54893;49.864;19.084;2023-03-14T21:57:35;4.43;;;1.90;;
68108;SDS011;54893;49.864;19.084;2023-03-14T22:02:35;5.67;;;2.20;;
68108;SDS011;54893;49.864;19.084;2023-03-14T22:07:35;6.17;;;2.33;;
68108;SDS011;54893;49.864;19.084;2023-03-14T22:12:36;5.53;;;2.27;;
68108;SDS011;54893;49.864;19.084;2023-03-14T22:17:37;5.63;;;2.30;;
68108;SDS011;54893;49.864;19.084;2023-03-14T22:22:38;4.90;;;2.10;;
68108;SDS011;54893;49.864;19.084;2023-03-14T22:27:38;4.93;;;2.42;;
68108;SDS011;54893;49.864;19.084;2023-03-14T22:32:38;4.90;;;2.58;;
68108;SDS011;54893;49.864;19.084;2023-03-14T22:37:39;5.90;;;2.73;;
68108;SDS011;54893;49.864;19.084;2023-03-14T22:42:39;5.53;;;2.40;;
68108;SDS011;54893;49.864;19.084;2023-03-14T22:47:39;5.63;;;2.77;;
68108;SDS011;54893;49.864;19.084;2023-03-14T22:52:40;5.03;;;2.00;;
68108;SDS011;54893;49.864;19.084;2023-03-14T22:57:40;5.47;;;2.77;;
68108;SDS011;54893;49.864;19.084;2023-03-14T23:02:40;5.13;;;2.77;;
68108;SDS011;54893;49.864;19.084;2023-03-14T23:07:41;6.30;;;2.58;;
68108;SDS011;54893;49.864;19.084;2023-03-14T23:12:41;7.20;;;4.13;;
68108;SDS011;54893;49.864;19.084;2023-03-14T23:17:44;4.28;;;2.35;;
68108;SDS011;54893;49.864;19.084;2023-03-14T23:22:44;5.20;;;3.63;;
68108;SDS011;54893;49.864;19.084;2023-03-14T23:27:45;8.27;;;5.83;;
68108;SDS011;54893;49.864;19.084;2023-03-14T23:32:45;9.40;;;5.63;;
68108;SDS011;54893;49.864;19.084;2023-03-14T23:37:46;13.60;;;7.60;;
68108;SDS011;54893;49.864;19.084;2023-03-14T23:42:47;19.07;;;10.13;;
68108;SDS011;54893;49.864;19.084;2023-03-14T23:47:48;17.40;;;9.80;;
68108;SDS011;54893;49.864;19.084;2023-03-14T23:52:48;13.87;;;7.00;;
68108;SDS011;54893;49.864;19.084;2023-03-14T23:57:48;7.93;;;5.13;;
